createdAt,value
2018-10-06T00:01:41.818Z,2.57
2018-10-06T00:04:10.838Z,2.47
2018-10-06T00:06:39.761Z,2.33
2018-10-06T00:09:08.982Z,2.40
2018-10-06T00:11:37.941Z,2.83
2018-10-06T00:14:06.906Z,2.20
2018-10-06T00:16:35.845Z,2.20
2018-10-06T00:19:04.804Z,2.37
2018-10-06T00:21:33.786Z,1.93
2018-10-06T00:24:02.765Z,2.80
2018-10-06T00:26:31.760Z,2.30
2018-10-06T00:29:00.666Z,2.83
2018-10-06T00:31:29.614Z,2.07
2018-10-06T00:33:58.677Z,2.20
2018-10-06T00:36:27.649Z,2.30
2018-10-06T00:38:56.642Z,2.43
2018-10-06T00:41:25.754Z,2.50
2018-10-06T00:43:54.745Z,2.13
2018-10-06T00:46:23.749Z,2.17
2018-10-06T00:48:52.799Z,1.83
2018-10-06T00:51:21.759Z,2.00
2018-10-06T00:53:51.348Z,2.17
2018-10-06T00:56:20.856Z,2.77
2018-10-06T00:58:49.861Z,2.17
2018-10-06T01:01:18.853Z,2.00
2018-10-06T01:03:48.223Z,1.90
2018-10-06T01:06:17.210Z,1.97
2018-10-06T01:08:46.170Z,1.90
2018-10-06T01:11:15.186Z,2.03
2018-10-06T01:13:44.087Z,1.90
2018-10-06T01:16:13.082Z,1.87
2018-10-06T01:18:42.023Z,2.23
2018-10-06T01:21:10.997Z,2.00
2018-10-06T01:23:40.091Z,2.17
2018-10-06T01:26:09.161Z,1.77
2018-10-06T01:28:38.070Z,2.13
2018-10-06T01:31:07.275Z,2.20
2018-10-06T01:33:36.243Z,3.00
2018-10-06T01:36:05.165Z,2.33
2018-10-06T01:38:34.626Z,2.57
2018-10-06T01:41:03.555Z,2.20
2018-10-06T01:43:33.213Z,2.30
2018-10-06T01:46:02.225Z,1.90
2018-10-06T01:48:31.183Z,2.27
2018-10-06T01:51:00.344Z,2.20
2018-10-06T01:53:29.274Z,1.83
2018-10-06T01:55:58.269Z,2.03
2018-10-06T01:58:27.355Z,2.10
2018-10-06T02:00:56.411Z,2.30
2018-10-06T02:03:26.543Z,2.30
2018-10-06T02:05:55.482Z,1.90
2018-10-06T02:08:24.496Z,1.80
2018-10-06T02:10:53.456Z,2.00
2018-10-06T02:13:22.405Z,2.37
2018-10-06T02:15:51.394Z,2.33
2018-10-06T02:18:20.303Z,2.17
2018-10-06T02:20:49.246Z,2.43
2018-10-06T02:23:18.223Z,1.87
2018-10-06T02:25:47.269Z,2.27
2018-10-06T02:28:16.240Z,2.20
2018-10-06T02:30:45.165Z,1.80
2018-10-06T02:33:14.170Z,1.90
2018-10-06T02:35:43.111Z,1.80
2018-10-06T02:38:12.099Z,2.10
2018-10-06T02:40:41.676Z,2.67
2018-10-06T02:43:10.621Z,2.20
2018-10-06T02:45:39.580Z,2.00
2018-10-06T02:48:08.572Z,1.97
2018-10-06T02:50:37.523Z,1.70
2018-10-06T02:53:06.721Z,1.83
2018-10-06T02:55:35.661Z,2.20
2018-10-06T02:58:04.609Z,2.27
2018-10-06T03:00:33.553Z,2.27
2018-10-06T03:03:02.460Z,2.30
2018-10-06T03:05:31.462Z,2.03
2018-10-06T03:08:00.556Z,2.00
2018-10-06T03:10:29.577Z,2.30
2018-10-06T03:12:58.504Z,1.93
2018-10-06T03:15:28.219Z,2.43
2018-10-06T03:17:57.252Z,2.20
2018-10-06T03:20:26.692Z,2.57
2018-10-06T03:22:56.869Z,2.03
2018-10-06T03:25:25.778Z,2.50
2018-10-06T03:27:54.679Z,2.23
2018-10-06T03:30:23.646Z,2.10
2018-10-06T03:32:52.640Z,1.87
2018-10-06T03:35:21.638Z,2.60
2018-10-06T03:37:51.269Z,2.97
2018-10-06T03:40:20.221Z,2.20
2018-10-06T03:42:49.170Z,2.33
2018-10-06T03:45:18.223Z,2.40
2018-10-06T03:47:47.196Z,1.87
2018-10-06T03:50:16.134Z,1.80
2018-10-06T03:52:45.109Z,1.93
2018-10-06T03:55:14.044Z,2.00
2018-10-06T03:57:42.945Z,2.10
2018-10-06T04:00:11.876Z,2.80
2018-10-06T04:02:40.832Z,2.30
2018-10-06T04:05:09.814Z,2.80
2018-10-06T04:07:38.789Z,2.40
2018-10-06T04:10:07.723Z,2.33
2018-10-06T04:12:36.674Z,2.73
2018-10-06T04:15:06.031Z,2.20
2018-10-06T04:17:34.940Z,2.87
2018-10-06T04:20:03.866Z,2.27
2018-10-06T04:22:32.850Z,2.47
2018-10-06T04:25:01.812Z,2.47
2018-10-06T04:27:30.798Z,2.37
2018-10-06T04:29:59.780Z,2.23
2018-10-06T04:32:28.692Z,2.17
2018-10-06T04:34:57.661Z,2.20
2018-10-06T04:37:26.642Z,2.20
2018-10-06T04:39:55.564Z,2.10
2018-10-06T04:42:24.531Z,1.67
2018-10-06T04:44:53.449Z,2.43
2018-10-06T04:47:22.593Z,2.20
2018-10-06T04:49:51.527Z,2.10
2018-10-06T04:52:20.441Z,2.10
2018-10-06T04:54:50.222Z,2.20
2018-10-06T04:57:20.049Z,2.57
2018-10-06T04:59:48.977Z,2.30
2018-10-06T05:02:17.987Z,2.43
2018-10-06T05:04:50.077Z,2.50
2018-10-06T05:07:19.014Z,2.77
2018-10-06T05:09:48.977Z,2.33
2018-10-06T05:12:17.886Z,2.23
2018-10-06T05:14:46.794Z,2.10
2018-10-06T05:17:16.785Z,2.00
2018-10-06T05:19:57.594Z,2.30
2018-10-06T05:22:26.579Z,2.30
2018-10-06T05:24:55.507Z,2.93
2018-10-06T05:27:25.023Z,3.17
2018-10-06T05:29:53.982Z,2.73
2018-10-06T05:32:22.929Z,2.47
2018-10-06T05:34:51.932Z,2.60
2018-10-06T05:37:21.155Z,3.53
2018-10-06T05:39:50.420Z,2.80
2018-10-06T05:42:19.377Z,2.50
2018-10-06T05:44:48.368Z,3.53
2018-10-06T05:47:19.110Z,2.50
2018-10-06T05:49:48.038Z,2.83
2018-10-06T05:52:17.891Z,2.73
2018-10-06T05:54:46.859Z,2.50
2018-10-06T05:57:15.796Z,2.23
2018-10-06T05:59:44.712Z,2.20
2018-10-06T06:02:14.187Z,2.20
2018-10-06T06:04:43.219Z,2.23
2018-10-06T06:07:12.127Z,2.70
2018-10-06T06:09:41.256Z,3.07
2018-10-06T06:12:10.186Z,2.07
2018-10-06T06:14:39.870Z,2.20
2018-10-06T06:17:08.900Z,2.80
2018-10-06T06:19:37.882Z,2.40
2018-10-06T06:22:06.924Z,3.03
2018-10-06T06:24:35.862Z,2.40
2018-10-06T06:27:04.843Z,2.43
2018-10-06T06:29:33.752Z,2.17
2018-10-06T06:32:02.707Z,2.07
2018-10-06T06:34:32.732Z,2.23
2018-10-06T06:37:01.691Z,2.63
2018-10-06T06:39:30.605Z,2.03
2018-10-06T06:42:00.682Z,2.50
2018-10-06T06:44:29.800Z,2.63
2018-10-06T06:46:58.597Z,2.47
2018-10-06T06:49:29.031Z,2.90
2018-10-06T06:51:58.307Z,2.50
2018-10-06T06:54:27.237Z,2.63
2018-10-06T06:56:56.404Z,2.40
2018-10-06T06:59:25.342Z,2.30
2018-10-06T07:01:54.271Z,2.70
2018-10-06T07:04:27.785Z,2.90
2018-10-06T07:07:05.903Z,3.40
2018-10-06T07:09:34.865Z,2.60
2018-10-06T07:12:03.778Z,2.43
2018-10-06T07:14:32.726Z,2.70
2018-10-06T07:17:01.946Z,2.87
2018-10-06T07:19:31.597Z,2.40
2018-10-06T07:22:02.685Z,2.60
2018-10-06T07:24:36.566Z,2.33
2018-10-06T07:32:32.859Z,2.40
2018-10-06T07:35:01.774Z,2.97
2018-10-06T07:37:30.718Z,3.07
2018-10-06T07:40:06.759Z,3.03
2018-10-06T07:43:25.514Z,2.57
2018-10-06T07:45:57.953Z,2.67
2018-10-06T07:48:27.273Z,2.30
2018-10-06T07:50:56.241Z,3.13
2018-10-06T07:53:30.196Z,2.60
2018-10-06T07:55:59.131Z,2.50
2018-10-06T07:58:28.090Z,2.60
2018-10-06T08:00:57.976Z,2.27
2018-10-06T08:03:27.113Z,3.40
2018-10-06T08:05:57.660Z,3.03
2018-10-06T08:08:30.320Z,3.13
2018-10-06T08:11:01.050Z,3.20
2018-10-06T08:13:30.173Z,2.30
2018-10-06T08:16:00.325Z,2.83
2018-10-06T08:18:44.643Z,3.23
2018-10-06T08:21:32.035Z,3.53
2018-10-06T08:24:01.124Z,2.87
2018-10-06T08:26:30.070Z,2.83
2018-10-06T08:29:00.405Z,3.57
2018-10-06T08:31:29.702Z,2.53
2018-10-06T08:33:58.662Z,3.57
2018-10-06T08:36:27.704Z,3.27
2018-10-06T08:38:59.946Z,4.20
2018-10-06T08:41:31.679Z,4.20
2018-10-06T08:44:00.633Z,3.87
2018-10-06T08:46:30.189Z,4.37
2018-10-06T08:48:59.241Z,4.17
2018-10-06T08:51:28.184Z,4.10
2018-10-06T08:53:57.115Z,4.47
2018-10-06T08:56:26.115Z,4.33
2018-10-06T08:58:55.038Z,3.93
2018-10-06T09:01:24.691Z,3.50
2018-10-06T09:03:54.009Z,3.67
2018-10-06T09:06:22.974Z,4.03
2018-10-06T09:08:51.905Z,3.40
2018-10-06T09:11:20.880Z,3.93
2018-10-06T09:13:49.897Z,4.13
2018-10-06T09:16:18.856Z,9.27
2018-10-06T09:18:47.790Z,4.30
2018-10-06T09:21:17.349Z,3.40
2018-10-06T09:23:46.342Z,3.70
2018-10-06T09:26:15.252Z,4.33
2018-10-06T09:28:44.325Z,3.27
2018-10-06T09:31:13.277Z,3.10
2018-10-06T09:33:42.250Z,3.40
2018-10-06T09:36:11.361Z,3.20
2018-10-06T09:38:40.301Z,3.90
2018-10-06T09:41:09.352Z,3.73
2018-10-06T09:43:38.372Z,3.50
2018-10-06T09:46:07.375Z,3.40
2018-10-06T09:48:36.332Z,3.33
2018-10-06T09:51:05.251Z,3.33
2018-10-06T09:53:34.316Z,3.27
2018-10-06T09:56:03.211Z,3.27
2018-10-06T09:58:32.139Z,3.73
2018-10-06T10:01:06.575Z,3.33
2018-10-06T10:03:40.926Z,2.87
2018-10-06T10:06:10.057Z,3.70
2018-10-06T10:08:39.021Z,3.30
2018-10-06T10:11:07.982Z,3.53
2018-10-06T10:13:37.849Z,3.40
2018-10-06T10:16:07.510Z,3.30
2018-10-06T10:18:36.467Z,3.17
2018-10-06T10:21:05.430Z,3.60
2018-10-06T10:23:34.367Z,2.80
2018-10-06T10:26:03.381Z,3.23
2018-10-06T10:28:32.427Z,3.00
2018-10-06T10:31:01.297Z,3.07
2018-10-06T10:33:30.263Z,2.87
2018-10-06T10:35:59.159Z,3.53
2018-10-06T10:38:28.081Z,3.27
2018-10-06T10:40:57.043Z,3.07
2018-10-06T10:43:25.987Z,3.33
2018-10-06T10:45:54.905Z,2.83
2018-10-06T10:48:24.703Z,2.90
2018-10-06T10:50:53.602Z,2.87
2018-10-06T10:53:22.559Z,2.90
2018-10-06T10:55:51.510Z,2.70
2018-10-06T10:58:20.433Z,2.70
2018-10-06T11:00:49.446Z,2.63
2018-10-06T11:03:18.434Z,2.90
2018-10-06T11:05:47.437Z,2.60
2018-10-06T11:08:16.949Z,2.73
2018-10-06T11:10:45.905Z,2.90
2018-10-06T11:13:14.837Z,2.50
2018-10-06T11:15:43.832Z,2.90
2018-10-06T11:18:12.777Z,2.57
2018-10-06T11:20:41.821Z,3.10
2018-10-06T11:23:10.751Z,2.50
2018-10-06T11:25:39.681Z,2.60
2018-10-06T11:28:08.661Z,2.53
2018-10-06T11:30:37.586Z,2.30
2018-10-06T11:33:06.994Z,2.20
2018-10-06T11:35:35.917Z,2.53
2018-10-06T11:38:05.481Z,3.40
2018-10-06T11:40:34.463Z,2.83
2018-10-06T11:43:03.449Z,2.43
2018-10-06T11:45:32.436Z,2.60
2018-10-06T11:48:01.356Z,2.40
2018-10-06T11:50:30.278Z,2.60
2018-10-06T11:52:59.418Z,2.63
2018-10-06T11:55:28.380Z,2.57
2018-10-06T11:57:57.310Z,2.53
2018-10-06T12:00:26.371Z,2.87
2018-10-06T12:02:55.251Z,2.93
2018-10-06T12:05:24.215Z,3.27
2018-10-06T12:07:53.435Z,2.67
2018-10-06T12:10:22.368Z,2.87
2018-10-06T12:12:51.289Z,2.77
2018-10-06T12:15:20.230Z,2.53
2018-10-06T12:17:49.164Z,2.40
2018-10-06T12:20:18.194Z,2.37
2018-10-06T12:22:47.077Z,2.60
2018-10-06T12:25:15.992Z,2.27
2018-10-06T12:27:44.950Z,1.77
2018-10-06T12:30:13.937Z,2.20
2018-10-06T12:32:42.900Z,2.43
2018-10-06T12:35:11.944Z,1.90
2018-10-06T12:37:40.838Z,2.10
2018-10-06T12:40:09.822Z,2.20
2018-10-06T12:42:38.737Z,1.90
2018-10-06T12:45:07.846Z,2.00
2018-10-06T12:47:37.035Z,2.10
2018-10-06T12:50:05.974Z,2.47
2018-10-06T12:52:34.934Z,1.80
2018-10-06T12:55:03.891Z,2.10
2018-10-06T12:57:32.836Z,2.00
2018-10-06T13:00:01.815Z,2.43
2018-10-06T13:02:30.712Z,2.00
2018-10-06T13:04:59.678Z,2.30
2018-10-06T13:07:28.613Z,1.90
2018-10-06T13:09:57.544Z,2.27
2018-10-06T13:12:26.563Z,2.23
2018-10-06T13:14:55.529Z,2.10
2018-10-06T13:17:24.421Z,2.07
2018-10-06T13:19:53.382Z,2.03
2018-10-06T13:22:22.384Z,2.03
2018-10-06T13:24:51.364Z,2.00
2018-10-06T13:27:20.343Z,1.87
2018-10-06T13:29:58.753Z,1.77
2018-10-06T13:32:28.071Z,1.92
2018-10-06T13:34:57.784Z,2.37
2018-10-06T13:37:26.696Z,2.33
2018-10-06T13:39:55.993Z,1.80
2018-10-06T13:42:25.119Z,1.80
2018-10-06T13:44:54.074Z,2.50
2018-10-06T13:47:22.999Z,1.93
2018-10-06T13:49:51.943Z,1.98
2018-10-06T13:52:20.937Z,2.00
2018-10-06T13:54:50.983Z,1.80
2018-10-06T13:57:19.962Z,2.05
2018-10-06T13:59:48.897Z,1.62
2018-10-06T14:02:17.864Z,1.60
2018-10-06T14:04:46.823Z,1.73
2018-10-06T14:07:15.751Z,1.70
2018-10-06T14:09:44.705Z,1.73
2018-10-06T14:12:49.163Z,1.77
2018-10-06T14:15:18.193Z,1.80
2018-10-06T14:17:47.149Z,1.80
2018-10-06T14:20:16.118Z,1.83
2018-10-06T14:22:45.074Z,1.55
2018-10-06T14:25:14.901Z,1.70
2018-10-06T14:27:43.836Z,1.70
2018-10-06T14:30:18.279Z,1.87
2018-10-06T14:32:47.230Z,1.60
2018-10-06T14:35:16.265Z,1.50
2018-10-06T14:37:45.206Z,1.57
2018-10-06T14:40:14.161Z,1.97
2018-10-06T14:43:26.562Z,1.45
2018-10-06T14:45:55.511Z,1.45
2018-10-06T14:48:24.420Z,1.53
2018-10-06T14:50:54.274Z,1.80
2018-10-06T14:53:23.245Z,1.60
2018-10-06T14:55:52.214Z,1.80
2018-10-06T14:58:21.155Z,1.80
2018-10-06T15:00:50.076Z,1.70
2018-10-06T15:03:19.278Z,1.90
2018-10-06T15:05:48.312Z,1.60
2018-10-06T15:08:17.288Z,1.67
2018-10-06T15:10:46.200Z,1.83
2018-10-06T15:13:15.131Z,1.98
2018-10-06T15:15:44.181Z,1.70
2018-10-06T15:18:13.050Z,1.77
2018-10-06T15:20:41.968Z,2.17
2018-10-06T15:23:10.935Z,2.07
2018-10-06T15:25:39.873Z,1.77
2018-10-06T15:28:08.810Z,1.53
2018-10-06T15:30:37.724Z,1.80
2018-10-06T15:33:06.782Z,1.83
2018-10-06T15:35:35.688Z,1.90
2018-10-06T15:38:04.658Z,1.50
2018-10-06T15:40:40.233Z,1.60
2018-10-06T15:43:09.169Z,1.80
2018-10-06T15:45:38.066Z,1.80
2018-10-06T15:48:07.010Z,1.80
2018-10-06T15:50:35.967Z,1.67
2018-10-06T15:53:04.939Z,1.77
2018-10-06T15:55:33.897Z,1.90
2018-10-06T15:58:03.010Z,1.45
2018-10-06T16:00:31.907Z,1.60
2018-10-06T16:03:00.904Z,1.70
2018-10-06T16:05:29.946Z,1.93
2018-10-06T16:07:58.918Z,1.70
2018-10-06T16:10:27.844Z,1.70
2018-10-06T16:12:56.775Z,2.10
2018-10-06T16:15:25.754Z,2.10
2018-10-06T16:17:54.726Z,1.77
2018-10-06T16:20:23.667Z,2.10
2018-10-06T16:22:52.623Z,1.97
2018-10-06T16:25:21.586Z,2.00
2018-10-06T16:27:50.508Z,2.12
2018-10-06T16:30:19.453Z,2.08
2018-10-06T16:32:48.442Z,1.93
2018-10-06T16:35:17.419Z,2.13
2018-10-06T16:37:46.360Z,2.30
2018-10-06T16:40:15.291Z,2.20
2018-10-06T16:42:44.217Z,2.10
2018-10-06T16:45:13.173Z,2.72
2018-10-06T16:47:42.089Z,2.08
2018-10-06T16:50:11.047Z,3.40
2018-10-06T16:52:40.146Z,2.37
2018-10-06T16:55:09.086Z,2.37
2018-10-06T16:57:38.074Z,2.10
2018-10-06T17:00:07.081Z,2.20
2018-10-06T17:02:36.025Z,1.90
2018-10-06T17:05:05.163Z,2.40
2018-10-06T17:07:34.134Z,2.10
2018-10-06T17:10:03.096Z,2.07
2018-10-06T17:12:32.055Z,2.10
2018-10-06T17:15:00.998Z,2.50
2018-10-06T17:17:30.005Z,2.87
2018-10-06T17:19:59.012Z,3.03
2018-10-06T17:22:27.927Z,2.83
2018-10-06T17:24:57.047Z,2.40
2018-10-06T17:27:25.965Z,2.70
2018-10-06T17:29:54.908Z,2.17
2018-10-06T17:32:23.875Z,2.37
2018-10-06T17:34:52.915Z,2.27
2018-10-06T17:37:22.663Z,2.40
2018-10-06T17:39:51.583Z,2.33
2018-10-06T17:42:20.569Z,2.73
2018-10-06T17:44:49.508Z,2.23
2018-10-06T17:47:18.447Z,2.67
2018-10-06T17:49:47.446Z,2.60
2018-10-06T17:52:16.351Z,2.17
2018-10-06T17:54:45.593Z,3.10
2018-10-06T17:57:14.506Z,2.77
2018-10-06T17:59:43.425Z,2.90
2018-10-06T18:02:12.409Z,2.30
2018-10-06T18:04:41.507Z,3.03
2018-10-06T18:07:10.468Z,2.60
2018-10-06T18:09:39.390Z,2.60
2018-10-06T18:12:08.435Z,2.43
2018-10-06T18:14:37.419Z,2.80
2018-10-06T18:17:06.317Z,2.53
2018-10-06T18:19:35.286Z,2.50
2018-10-06T18:22:04.231Z,3.03
2018-10-06T18:24:33.272Z,2.57
2018-10-06T18:27:02.301Z,3.67
2018-10-06T18:29:31.224Z,2.97
2018-10-06T18:32:00.277Z,2.80
2018-10-06T18:34:29.235Z,3.63
2018-10-06T18:36:58.374Z,2.40
2018-10-06T18:39:27.219Z,2.50
2018-10-06T18:41:56.144Z,3.13
2018-10-06T18:44:25.095Z,3.10
2018-10-06T18:46:54.115Z,3.13
2018-10-06T18:49:23.194Z,3.17
2018-10-06T18:51:52.058Z,2.83
2018-10-06T18:54:21.029Z,2.50
2018-10-06T18:56:49.977Z,2.90
2018-10-06T18:59:19.280Z,2.93
2018-10-06T19:01:48.671Z,3.00
2018-10-06T19:04:18.043Z,3.03
2018-10-06T19:06:47.331Z,3.67
2018-10-06T19:09:16.609Z,3.13
2018-10-06T19:11:45.861Z,2.80
2018-10-06T19:14:15.128Z,2.87
2018-10-06T19:16:44.490Z,3.70
2018-10-06T19:19:13.848Z,3.33
2018-10-06T19:21:43.141Z,3.10
2018-10-06T19:24:12.412Z,3.13
2018-10-06T19:26:41.726Z,3.10
2018-10-06T19:29:11.832Z,3.13
2018-10-06T19:31:41.065Z,3.07
2018-10-06T19:34:10.358Z,3.57
2018-10-06T19:36:39.568Z,3.53
2018-10-06T19:39:09.419Z,3.90
2018-10-06T19:41:39.211Z,4.13
2018-10-06T19:44:08.464Z,3.30
2018-10-06T19:46:37.907Z,2.53
2018-10-06T19:49:07.173Z,3.77
2018-10-06T19:51:36.507Z,3.27
2018-10-06T19:54:06.772Z,4.30
2018-10-06T19:56:36.062Z,3.30
2018-10-06T19:59:05.331Z,3.83
2018-10-06T20:01:34.581Z,4.03
2018-10-06T20:04:03.879Z,3.77
2018-10-06T20:06:33.129Z,3.23
2018-10-06T20:09:02.414Z,3.70
2018-10-06T20:11:31.664Z,2.83
2018-10-06T20:14:00.943Z,4.17
2018-10-06T20:16:30.185Z,5.63
2018-10-06T20:18:59.548Z,3.03
2018-10-06T20:21:28.834Z,3.63
2018-10-06T20:23:58.246Z,2.93
2018-10-06T20:26:27.208Z,4.03
2018-10-06T20:28:56.155Z,3.03
2018-10-06T20:31:25.133Z,2.63
2018-10-06T20:33:54.049Z,3.00
2018-10-06T20:36:23.023Z,3.10
2018-10-06T20:38:52.068Z,3.07
2018-10-06T20:41:21.005Z,3.10
2018-10-06T20:43:51.044Z,3.03
2018-10-06T20:46:20.007Z,3.57
2018-10-06T20:48:48.952Z,3.57
2018-10-06T20:51:17.894Z,3.37
2018-10-06T20:53:46.852Z,3.00
2018-10-06T20:56:15.950Z,3.07
2018-10-06T20:58:44.901Z,3.33
2018-10-06T21:01:13.827Z,2.90
2018-10-06T21:03:42.781Z,2.87
2018-10-06T21:06:11.786Z,2.73
2018-10-06T21:08:40.726Z,3.30
2018-10-06T21:11:09.750Z,3.67
2018-10-06T21:13:38.742Z,3.40
2018-10-06T21:16:07.661Z,3.30
2018-10-06T21:18:36.627Z,2.87
2018-10-06T21:21:05.575Z,3.67
2018-10-06T21:23:34.482Z,3.47
2018-10-06T21:26:03.478Z,3.20
2018-10-06T21:28:32.426Z,3.40
2018-10-06T21:31:01.371Z,2.97
2018-10-06T21:33:30.368Z,2.83
2018-10-06T21:35:59.318Z,3.03
2018-10-06T21:38:28.292Z,3.10
2018-10-06T21:40:57.379Z,3.30
2018-10-06T21:43:26.379Z,3.07
2018-10-06T21:45:55.791Z,2.80
2018-10-06T21:48:24.816Z,3.30
2018-10-06T21:50:53.831Z,2.97
2018-10-06T21:53:22.765Z,2.33
2018-10-06T21:55:51.736Z,2.63
2018-10-06T21:58:20.743Z,2.37
2018-10-06T22:00:53.891Z,2.60
2018-10-06T22:03:22.888Z,2.80
2018-10-06T22:05:51.879Z,2.90
2018-10-06T22:08:20.874Z,3.13
2018-10-06T22:10:49.855Z,3.47
2018-10-06T22:13:18.830Z,2.80
2018-10-06T22:15:47.783Z,2.57
2018-10-06T22:18:16.770Z,3.37
2018-10-06T22:20:45.734Z,2.77
2018-10-06T22:23:15.000Z,2.80
2018-10-06T22:25:44.604Z,2.73
2018-10-06T22:28:13.573Z,2.70
2018-10-06T22:30:42.609Z,3.17
2018-10-06T22:33:11.597Z,2.73
2018-10-06T22:35:40.663Z,2.53
2018-10-06T22:38:09.605Z,2.43
2018-10-06T22:40:38.573Z,2.80
2018-10-06T22:43:07.511Z,2.63
2018-10-06T22:45:36.464Z,2.67
2018-10-06T22:48:05.416Z,3.23
2018-10-06T22:50:34.402Z,3.07
2018-10-06T22:53:03.878Z,2.70
2018-10-06T22:55:32.865Z,2.57
2018-10-06T22:58:01.816Z,3.07
2018-10-06T23:00:30.787Z,2.43
2018-10-06T23:02:59.771Z,2.87
2018-10-06T23:05:28.755Z,2.37
2018-10-06T23:07:57.769Z,2.77
2018-10-06T23:10:26.784Z,2.70
2018-10-06T23:12:55.729Z,2.50
2018-10-06T23:15:24.676Z,3.40
2018-10-06T23:17:53.608Z,4.23
2018-10-06T23:20:22.640Z,3.60
2018-10-06T23:22:51.601Z,3.70
2018-10-06T23:25:20.525Z,4.20
2018-10-06T23:27:49.517Z,3.90
2018-10-06T23:30:18.510Z,4.30
2018-10-06T23:32:48.076Z,4.77
2018-10-06T23:35:17.050Z,4.87
2018-10-06T23:37:45.975Z,4.37
2018-10-06T23:40:14.934Z,4.90
2018-10-06T23:42:43.899Z,4.70
2018-10-06T23:45:12.822Z,4.60
2018-10-06T23:47:41.799Z,4.73
2018-10-06T23:50:10.753Z,6.40
2018-10-06T23:52:39.724Z,6.57
2018-10-06T23:55:08.669Z,5.30
2018-10-06T23:57:37.660Z,5.37
